Time;durP1;ratioP1;P1;durP2;ratioP2;P2;SDS_P1;SDS_P2;PMS_P1;PMS_P2;Temp;Humidity;BMP_temperature;BMP_pressure;BME280_temperature;BME280_humidity;BME280_pressure;Samples;Min_cycle;Max_cycle;Signal;HPM_P1;HPM_P2
2022/04/30 00:02:07;;;;;;;;;;;6.30;99.90;;;;;;4992972;28;19987;-80
2022/04/30 00:04:42;;;;;;;;;;;6.20;99.90;;;;;;4976713;28;19922;-80
2022/04/30 00:07:08;;;;;;;;;;;6.20;99.90;;;;;;4992589;28;19925;-80
2022/04/30 00:09:34;;;;;;;;;;;6.10;99.90;;;;;;4992552;28;19956;-79
2022/04/30 00:11:59;;;;;;;;;;;6.80;99.90;;;;;;4975405;28;19929;-80
2022/04/30 00:14:26;;;;;;;;;;;6.10;99.90;;;;;;4992065;28;20330;-80
2022/04/30 00:16:51;;;;;;;;;;;6.10;99.90;;;;;;4992152;28;19922;-80
2022/04/30 00:19:19;;;;;;;;;;;6.00;99.90;;;;;;4992750;28;19957;-81
2022/04/30 00:21:44;;;;;;;;;;;6.20;99.90;;;;;;4991434;28;20049;-79
2022/04/30 00:24:10;;;;;;;;;;;6.00;99.90;;;;;;4992535;28;20037;-80
2022/04/30 00:26:36;;;;;;;;;;;6.00;99.90;;;;;;4987477;28;19971;-77
2022/04/30 00:29:01;;;;;;;;;;;5.90;99.90;;;;;;5011443;28;19948;-79
2022/04/30 00:31:27;;;;;;;;;;;5.90;99.90;;;;;;5011966;28;19921;-79
2022/04/30 00:33:53;;;;;;;;;;;5.90;99.90;;;;;;5011353;28;20367;-80
2022/04/30 00:36:18;;;;;;;;;;;5.90;99.90;;;;;;4978880;28;20420;-79
2022/04/30 00:38:44;;;;;;;;;;;6.10;99.90;;;;;;5009554;28;19928;-79
2022/04/30 00:41:10;;;;;;;;;;;5.90;99.90;;;;;;5001645;28;19926;-80
2022/04/30 00:43:46;;;;;;;;;;;5.80;99.90;;;;;;4992180;28;20064;-78
2022/04/30 00:46:12;;;;;;;;;;;5.80;99.90;;;;;;4991425;28;19929;-80
2022/04/30 00:48:38;;;;;;;;;;;5.80;99.90;;;;;;4991981;28;20291;-78
2022/04/30 00:51:04;;;;;;;;;;;5.70;99.90;;;;;;4970467;28;19921;-80
2022/04/30 00:53:30;;;;;;;;;;;5.70;99.90;;;;;;4991793;28;19926;-80
2022/04/30 00:55:56;;;;;;;;;;;5.70;99.90;;;;;;4974593;28;19929;-80
2022/04/30 00:58:23;;;;;;;;;;;5.90;99.90;;;;;;4991502;28;19922;-80
2022/04/30 01:00:49;;;;;;;;;;;5.60;99.90;;;;;;4959072;28;19925;-80
2022/04/30 01:03:14;;;;;;;;;;;5.50;99.90;;;;;;5006060;28;19929;-80
2022/04/30 01:05:40;;;;;;;;;;;5.50;99.90;;;;;;4994057;28;20040;-78
2022/04/30 01:08:06;;;;;;;;;;;5.50;99.90;;;;;;4978046;28;19976;-80
2022/04/30 01:10:32;;;;;;;;;;;5.40;99.90;;;;;;4990519;28;19944;-80
2022/04/30 01:12:58;;;;;;;;;;;5.40;99.90;;;;;;4990489;28;19925;-80
2022/04/30 01:15:24;;;;;;;;;;;5.60;99.90;;;;;;4991728;28;19988;-80
2022/04/30 01:17:50;;;;;;;;;;;5.80;99.90;;;;;;4974872;28;20012;-80
2022/04/30 01:20:15;;;;;;;;;;;5.30;99.90;;;;;;4991064;28;20024;-80
2022/04/30 01:23:03;;;;;;;;;;;5.30;99.90;;;;;;4990480;28;19922;-78
2022/04/30 01:25:32;;;;;;;;;;;5.20;99.90;;;;;;4958489;28;19936;-79
2022/04/30 01:27:59;;;;;;;;;;;5.20;99.90;;;;;;4990010;28;19925;-80
2022/04/30 01:30:24;;;;;;;;;;;5.10;99.90;;;;;;4975155;28;19932;-80
2022/04/30 01:38:20;;;;;;;;;;;4.80;99.90;;;;;;4990734;28;20648;-80
2022/04/30 01:40:49;;;;;;;;;;;5.00;99.90;;;;;;4973839;28;19929;-80
2022/04/30 01:43:15;;;;;;;;;;;4.70;99.90;;;;;;4990613;28;20019;-80
2022/04/30 01:45:43;;;;;;;;;;;4.70;99.90;;;;;;4990958;28;20012;-78
2022/04/30 01:48:12;;;;;;;;;;;4.60;99.90;;;;;;4975213;28;19922;-80
2022/04/30 01:50:38;;;;;;;;;;;4.70;99.90;;;;;;5000041;28;19921;-80
2022/04/30 01:53:03;;;;;;;;;;;4.60;99.90;;;;;;4992067;28;19926;-80
2022/04/30 01:55:29;;;;;;;;;;;5.00;99.90;;;;;;4974102;28;20005;-80
2022/04/30 01:57:55;;;;;;;;;;;4.90;99.90;;;;;;4957589;28;20020;-80
2022/04/30 02:00:21;;;;;;;;;;;4.50;99.90;;;;;;4993667;28;20008;-79
2022/04/30 02:02:48;;;;;;;;;;;4.50;99.90;;;;;;5009860;28;19921;-79
2022/04/30 02:05:14;;;;;;;;;;;4.60;99.90;;;;;;5010017;28;20007;-79
2022/04/30 02:07:46;;;;;;;;;;;5.10;99.90;;;;;;5010281;28;20461;-80
2022/04/30 02:10:11;;;;;;;;;;;4.40;99.90;;;;;;4999784;28;19921;-79
2022/04/30 02:12:37;;;;;;;;;;;4.80;99.90;;;;;;5009120;28;20264;-80
2022/04/30 02:15:04;;;;;;;;;;;4.40;99.90;;;;;;5008525;28;20124;-80
2022/04/30 02:17:30;;;;;;;;;;;4.40;99.90;;;;;;4990606;28;19930;-80
2022/04/30 02:22:41;;;;;;;;;;;4.30;99.90;;;;;;4990729;28;19926;-80
2022/04/30 02:25:09;;;;;;;;;;;4.30;99.90;;;;;;4973881;28;19949;-79
2022/04/30 02:27:48;;;;;;;;;;;4.30;99.90;;;;;;4990464;28;19925;-78
2022/04/30 02:30:15;;;;;;;;;;;4.30;99.90;;;;;;4990585;28;19926;-80
2022/04/30 02:32:41;;;;;;;;;;;4.20;99.90;;;;;;4991033;28;19953;-80
2022/04/30 02:35:08;;;;;;;;;;;4.40;99.90;;;;;;4989582;28;20020;-79
2022/04/30 02:37:33;;;;;;;;;;;4.20;99.90;;;;;;5003072;28;19922;-80
2022/04/30 02:39:59;;;;;;;;;;;4.50;99.90;;;;;;5009045;28;19934;-80
2022/04/30 02:42:25;;;;;;;;;;;4.90;99.90;;;;;;5009250;28;19921;-80
2022/04/30 02:44:51;;;;;;;;;;;4.20;99.90;;;;;;5009045;28;19921;-80
2022/04/30 02:47:16;;;;;;;;;;;4.20;99.90;;;;;;5009957;28;19922;-80
2022/04/30 02:49:42;;;;;;;;;;;4.20;99.90;;;;;;4993858;28;19968;-80
2022/04/30 02:52:07;;;;;;;;;;;4.20;99.90;;;;;;4999328;28;20382;-80
2022/04/30 02:54:34;;;;;;;;;;;4.40;99.90;;;;;;4990114;28;19925;-80
2022/04/30 02:57:00;;;;;;;;;;;4.20;99.90;;;;;;5003017;28;20057;-80
2022/04/30 03:02:10;;;;;;;;;;;4.10;99.90;;;;;;5009702;28;19922;-80
2022/04/30 03:04:36;;;;;;;;;;;4.60;99.90;;;;;;4992794;28;19922;-80
2022/04/30 03:07:02;;;;;;;;;;;4.20;99.90;;;;;;4989248;28;19977;-80
2022/04/30 03:09:27;;;;;;;;;;;4.00;99.90;;;;;;4999628;28;20386;-80
2022/04/30 03:11:53;;;;;;;;;;;4.00;99.90;;;;;;4992054;28;20016;-80
2022/04/30 03:14:18;;;;;;;;;;;4.00;99.90;;;;;;4992712;28;20329;-80
2022/04/30 03:22:12;;;;;;;;;;;4.10;99.90;;;;;;4984292;28;19973;-80
2022/04/30 03:24:38;;;;;;;;;;;4.50;99.90;;;;;;4990273;28;19972;-80
2022/04/30 03:27:04;;;;;;;;;;;4.00;99.90;;;;;;5003557;28;19925;-80
2022/04/30 03:29:29;;;;;;;;;;;4.00;99.90;;;;;;4997750;28;19933;-80
2022/04/30 03:31:56;;;;;;;;;;;4.00;99.90;;;;;;5011392;28;19921;-80
2022/04/30 03:34:21;;;;;;;;;;;4.00;99.90;;;;;;4996661;28;20329;-80
2022/04/30 03:36:47;;;;;;;;;;;4.10;99.90;;;;;;4996214;28;19921;-78
2022/04/30 03:39:13;;;;;;;;;;;4.00;99.90;;;;;;4996114;28;19926;-79
2022/04/30 03:41:38;;;;;;;;;;;4.30;99.90;;;;;;5012096;28;19925;-80
2022/04/30 03:44:04;;;;;;;;;;;4.00;99.90;;;;;;5011978;28;19925;-80
2022/04/30 03:46:30;;;;;;;;;;;4.10;99.90;;;;;;5012327;28;20505;-80
2022/04/30 03:48:56;;;;;;;;;;;3.90;99.90;;;;;;5012353;28;19928;-80
2022/04/30 03:51:23;;;;;;;;;;;4.00;99.90;;;;;;5008104;28;19932;-79
2022/04/30 03:53:48;;;;;;;;;;;4.10;99.90;;;;;;4976365;28;20355;-78
2022/04/30 03:56:17;;;;;;;;;;;4.10;99.90;;;;;;4992218;28;19933;-79
2022/04/30 03:58:43;;;;;;;;;;;4.10;99.90;;;;;;4976096;28;19922;-80
2022/04/30 04:01:09;;;;;;;;;;;4.10;99.90;;;;;;4992332;28;20393;-79
2022/04/30 04:03:36;;;;;;;;;;;4.40;99.90;;;;;;4981909;28;19925;-79
2022/04/30 04:06:01;;;;;;;;;;;4.70;99.90;;;;;;4994986;28;19925;-79
2022/04/30 04:08:27;;;;;;;;;;;4.10;99.90;;;;;;4996076;28;19925;-80
2022/04/30 04:10:53;;;;;;;;;;;4.10;99.90;;;;;;5009198;28;20416;-79
2022/04/30 04:18:51;;;;;;;;;;;4.10;99.90;;;;;;4998655;28;19925;-80
2022/04/30 04:21:18;;;;;;;;;;;4.10;99.90;;;;;;5011552;28;19964;-79
2022/04/30 04:26:28;;;;;;;;;;;4.20;99.90;;;;;;4991689;28;19921;-79
2022/04/30 04:28:53;;;;;;;;;;;4.40;99.90;;;;;;4991605;28;19925;-77
2022/04/30 04:31:22;;;;;;;;;;;4.10;99.90;;;;;;4976196;28;19934;-79
2022/04/30 04:33:47;;;;;;;;;;;4.10;99.90;;;;;;4992433;28;19930;-79
2022/04/30 04:36:13;;;;;;;;;;;4.20;99.90;;;;;;4975803;28;19922;-79
2022/04/30 04:38:39;;;;;;;;;;;4.20;99.90;;;;;;4975713;28;19968;-79
2022/04/30 04:41:04;;;;;;;;;;;4.20;99.90;;;;;;4991003;28;20364;-81
2022/04/30 04:43:30;;;;;;;;;;;4.30;99.90;;;;;;4991669;28;20426;-81
2022/04/30 04:45:56;;;;;;;;;;;4.30;99.90;;;;;;4999785;28;19928;-80
2022/04/30 04:48:21;;;;;;;;;;;4.40;99.90;;;;;;5011929;28;20019;-81
2022/04/30 04:50:47;;;;;;;;;;;4.70;99.90;;;;;;4978535;28;20409;-81
2022/04/30 04:53:13;;;;;;;;;;;5.10;99.90;;;;;;5010931;28;19980;-81
2022/04/30 04:55:39;;;;;;;;;;;4.90;99.90;;;;;;4993935;28;20413;-81
2022/04/30 04:58:04;;;;;;;;;;;5.20;99.90;;;;;;4986787;28;19926;-81
2022/04/30 05:00:30;;;;;;;;;;;4.60;99.90;;;;;;4991766;28;19925;-81
2022/04/30 05:02:56;;;;;;;;;;;5.20;99.90;;;;;;5006042;28;19996;-80
2022/04/30 05:05:22;;;;;;;;;;;4.70;99.90;;;;;;4994418;28;19922;-81
2022/04/30 05:07:47;;;;;;;;;;;4.80;99.90;;;;;;4978735;28;20378;-81
2022/04/30 05:10:13;;;;;;;;;;;4.80;99.90;;;;;;4999735;28;19922;-81
2022/04/30 05:12:38;;;;;;;;;;;5.10;99.90;;;;;;4991472;28;19964;-80
2022/04/30 05:15:04;;;;;;;;;;;4.90;99.90;;;;;;4958397;28;20378;-81
2022/04/30 05:17:31;;;;;;;;;;;4.80;99.90;;;;;;4991772;28;19928;-81
2022/04/30 05:19:57;;;;;;;;;;;4.80;99.90;;;;;;4989659;28;19922;-80
2022/04/30 05:22:22;;;;;;;;;;;4.80;99.90;;;;;;4986944;28;19971;-81
2022/04/30 05:24:48;;;;;;;;;;;4.80;99.90;;;;;;5010899;28;20016;-81
2022/04/30 05:27:13;;;;;;;;;;;4.90;99.90;;;;;;4993580;28;19944;-81
2022/04/30 05:29:39;;;;;;;;;;;5.50;99.90;;;;;;4994237;28;19929;-81
2022/04/30 05:32:05;;;;;;;;;;;5.00;99.90;;;;;;4993935;28;19968;-81
2022/04/30 05:34:30;;;;;;;;;;;5.00;99.90;;;;;;5010825;28;19925;-79
2022/04/30 05:36:56;;;;;;;;;;;5.80;99.90;;;;;;4991890;28;19921;-79
2022/04/30 05:39:22;;;;;;;;;;;5.10;99.90;;;;;;4989933;28;19925;-79
2022/04/30 05:41:47;;;;;;;;;;;5.20;99.90;;;;;;4990395;28;19929;-79
2022/04/30 05:44:13;;;;;;;;;;;5.30;99.90;;;;;;4990064;28;19921;-79
2022/04/30 05:46:39;;;;;;;;;;;5.40;99.90;;;;;;4988423;28;19926;-79
2022/04/30 05:49:04;;;;;;;;;;;5.50;99.90;;;;;;4992674;28;20362;-79
2022/04/30 05:51:30;;;;;;;;;;;5.90;99.90;;;;;;4986882;28;19933;-79
2022/04/30 05:53:57;;;;;;;;;;;6.00;99.90;;;;;;5002594;28;19933;-79
2022/04/30 05:56:23;;;;;;;;;;;5.90;99.90;;;;;;5009134;28;19917;-79
2022/04/30 05:58:48;;;;;;;;;;;6.10;99.90;;;;;;5008925;28;19951;-79
2022/04/30 06:01:14;;;;;;;;;;;6.20;99.90;;;;;;5009863;28;20026;-79
2022/04/30 06:03:40;;;;;;;;;;;6.30;99.90;;;;;;4978428;28;19929;-79
2022/04/30 06:06:05;;;;;;;;;;;6.50;99.90;;;;;;4973482;28;20398;-79
2022/04/30 06:08:31;;;;;;;;;;;6.60;99.90;;;;;;4974485;28;19969;-79
2022/04/30 06:10:57;;;;;;;;;;;6.70;99.90;;;;;;4989798;28;20564;-79
2022/04/30 06:13:23;;;;;;;;;;;6.80;99.90;;;;;;4957212;28;19925;-79
2022/04/30 06:15:48;;;;;;;;;;;6.80;99.90;;;;;;4990541;28;19960;-79
2022/04/30 06:18:16;;;;;;;;;;;7.00;99.90;;;;;;4990004;28;19928;-79
2022/04/30 06:20:41;;;;;;;;;;;7.60;99.90;;;;;;4960112;28;20355;-80
2022/04/30 06:23:07;;;;;;;;;;;7.30;99.90;;;;;;4992554;28;19932;-79
2022/04/30 06:25:34;;;;;;;;;;;7.30;99.90;;;;;;5009295;28;19968;-79
2022/04/30 06:28:01;;;;;;;;;;;7.50;99.90;;;;;;5009759;28;19948;-79
2022/04/30 06:30:27;;;;;;;;;;;7.60;99.90;;;;;;5009551;28;20004;-79
2022/04/30 06:32:52;;;;;;;;;;;7.60;99.90;;;;;;5009631;28;20399;-79
2022/04/30 06:35:18;;;;;;;;;;;7.70;99.90;;;;;;4992771;28;20024;-79
2022/04/30 06:37:43;;;;;;;;;;;7.70;99.90;;;;;;4993843;28;19931;-80
2022/04/30 06:40:09;;;;;;;;;;;7.80;99.90;;;;;;5008716;28;19929;-79
2022/04/30 06:42:41;;;;;;;;;;;7.80;99.90;;;;;;4977607;28;19929;-79
2022/04/30 06:45:08;;;;;;;;;;;7.80;99.90;;;;;;4976631;28;19922;-79
2022/04/30 06:47:34;;;;;;;;;;;7.80;99.90;;;;;;4990481;28;19925;-79
2022/04/30 06:49:59;;;;;;;;;;;7.80;99.90;;;;;;4973775;28;19930;-79
2022/04/30 06:52:25;;;;;;;;;;;8.40;99.90;;;;;;4989523;28;19926;-79
2022/04/30 06:57:35;;;;;;;;;;;8.10;99.90;;;;;;4990184;28;20447;-79
2022/04/30 07:01:25;;;;;;;;;;;8.20;99.90;;;;;;4990567;28;19922;-79
2022/04/30 07:02:46;;;;;;;;;;;8.20;99.90;;;;;;4994097;28;19965;-79
2022/04/30 07:05:12;;;;;;;;;;;8.30;99.90;;;;;;4977198;28;20383;-79
2022/04/30 07:07:37;;;;;;;;;;;8.40;99.90;;;;;;5010312;28;19961;-79
2022/04/30 07:10:03;;;;;;;;;;;8.50;99.90;;;;;;4977409;28;19926;-79
2022/04/30 07:12:29;;;;;;;;;;;8.60;99.90;;;;;;4992621;28;20046;-79
2022/04/30 07:14:55;;;;;;;;;;;8.70;99.90;;;;;;4976938;28;20323;-80
2022/04/30 07:17:21;;;;;;;;;;;8.80;99.90;;;;;;4993305;28;19922;-79
2022/04/30 07:19:46;;;;;;;;;;;8.80;99.90;;;;;;4993197;28;19979;-80
2022/04/30 07:22:13;;;;;;;;;;;8.90;99.90;;;;;;4960751;28;19964;-80
2022/04/30 07:24:38;;;;;;;;;;;9.00;99.90;;;;;;5012992;28;19990;-80
2022/04/30 07:27:04;;;;;;;;;;;9.10;99.90;;;;;;5009038;28;20363;-81
2022/04/30 07:29:31;;;;;;;;;;;9.20;99.90;;;;;;5011913;28;19929;-80
2022/04/30 07:31:56;;;;;;;;;;;9.30;99.90;;;;;;5012812;28;20385;-81
2022/04/30 07:34:22;;;;;;;;;;;9.40;99.90;;;;;;4995960;28;19921;-81
2022/04/30 07:36:48;;;;;;;;;;;9.50;99.90;;;;;;5012453;28;19957;-80
2022/04/30 07:39:14;;;;;;;;;;;9.60;99.90;;;;;;4979281;28;20413;-80
2022/04/30 07:41:40;;;;;;;;;;;9.80;99.90;;;;;;4995345;28;19979;-81
2022/04/30 07:44:05;;;;;;;;;;;9.90;99.90;;;;;;4995849;28;19983;-81
2022/04/30 07:46:31;;;;;;;;;;;10.00;99.90;;;;;;4979894;28;19924;-80
2022/04/30 07:48:57;;;;;;;;;;;10.10;99.90;;;;;;4980481;28;19960;-83
2022/04/30 07:51:53;;;;;;;;;;;10.20;99.90;;;;;;5000160;28;19971;-81
2022/04/30 07:54:08;;;;;;;;;;;10.40;99.90;;;;;;5009901;28;19925;-81
2022/04/30 07:56:34;;;;;;;;;;;10.50;99.90;;;;;;4992930;28;20291;-81
2022/04/30 07:59:00;;;;;;;;;;;10.60;99.90;;;;;;4984855;28;19932;-81
2022/04/30 08:01:25;;;;;;;;;;;10.70;99.90;;;;;;4993196;28;19964;-81
2022/04/30 08:03:51;;;;;;;;;;;10.90;99.90;;;;;;4994131;28;19947;-82
2022/04/30 08:06:16;;;;;;;;;;;11.00;99.90;;;;;;5009068;28;19921;-81
2022/04/30 08:08:42;;;;;;;;;;;11.10;99.90;;;;;;4994180;28;20005;-82
2022/04/30 08:11:07;;;;;;;;;;;11.10;99.90;;;;;;4991429;28;19932;-82
2022/04/30 08:13:33;;;;;;;;;;;11.20;99.90;;;;;;4993165;28;20752;-81
2022/04/30 08:15:59;;;;;;;;;;;11.10;99.90;;;;;;5010905;28;20080;-81
2022/04/30 08:18:26;;;;;;;;;;;11.00;99.90;;;;;;4994464;28;19925;-81
2022/04/30 08:20:52;;;;;;;;;;;10.90;99.90;;;;;;4994248;28;19926;-81
2022/04/30 08:23:18;;;;;;;;;;;10.80;99.90;;;;;;5010571;28;19947;-80
2022/04/30 08:25:44;;;;;;;;;;;10.80;99.90;;;;;;5007846;28;19925;-81
2022/04/30 08:28:09;;;;;;;;;;;10.70;99.90;;;;;;5010437;28;19929;-80
2022/04/30 08:30:35;;;;;;;;;;;10.70;99.90;;;;;;5010169;28;20787;-83
2022/04/30 08:33:01;;;;;;;;;;;10.70;99.90;;;;;;5003865;28;19928;-78
2022/04/30 08:35:26;;;;;;;;;;;10.60;99.90;;;;;;4993920;28;20298;-81
2022/04/30 08:37:52;;;;;;;;;;;10.60;99.90;;;;;;5010711;28;19972;-80
2022/04/30 08:40:18;;;;;;;;;;;10.50;99.90;;;;;;5009040;28;19972;-79
2022/04/30 08:42:44;;;;;;;;;;;10.60;99.90;;;;;;5010825;28;19925;-80
2022/04/30 08:45:10;;;;;;;;;;;10.70;99.90;;;;;;5011911;28;19972;-80
2022/04/30 08:47:39;;;;;;;;;;;10.80;99.90;;;;;;5011280;28;20161;-80
2022/04/30 08:50:09;;;;;;;;;;;10.90;99.90;;;;;;4995114;28;20617;-80
2022/04/30 08:52:35;;;;;;;;;;;11.00;99.90;;;;;;5011061;28;19925;-80
2022/04/30 08:55:00;;;;;;;;;;;11.10;99.90;;;;;;5011029;28;20441;-80
2022/04/30 08:57:26;;;;;;;;;;;11.30;99.90;;;;;;4993025;28;19971;-80
2022/04/30 08:59:52;;;;;;;;;;;11.40;99.90;;;;;;4994770;28;19921;-80
2022/04/30 09:02:17;;;;;;;;;;;11.50;99.90;;;;;;5001610;28;19921;-79
2022/04/30 09:04:44;;;;;;;;;;;11.60;99.90;;;;;;4975395;28;19926;-83
2022/04/30 09:07:14;;;;;;;;;;;11.70;99.90;;;;;;4985062;28;19926;-86
2022/04/30 09:09:40;;;;;;;;;;;11.70;99.90;;;;;;4996801;28;20433;-81
2022/04/30 09:12:07;;;;;;;;;;;11.80;99.90;;;;;;4998637;28;19928;-87
2022/04/30 09:14:33;;;;;;;;;;;12.00;99.90;;;;;;4984824;28;19948;-84
2022/04/30 09:17:06;;;;;;;;;;;12.10;99.90;;;;;;5005635;28;20366;-87
2022/04/30 09:19:44;;;;;;;;;;;12.30;99.90;;;;;;4998702;28;19948;-87
2022/04/30 09:22:10;;;;;;;;;;;12.50;99.90;;;;;;4965090;28;19964;-81
2022/04/30 09:24:49;;;;;;;;;;;12.60;99.90;;;;;;4999315;28;19964;-82
2022/04/30 09:27:18;;;;;;;;;;;12.70;99.90;;;;;;4997554;28;19922;-85
2022/04/30 09:29:44;;;;;;;;;;;12.80;99.90;;;;;;4982136;28;20370;-86
2022/04/30 09:32:19;;;;;;;;;;;13.00;99.90;;;;;;5001787;28;19973;-89
2022/04/30 09:37:41;;;;;;;;;;;13.30;99.90;;;;;;4995245;28;19922;-82
2022/04/30 09:40:27;;;;;;;;;;;13.30;99.90;;;;;;5001203;28;19961;-83
2022/04/30 09:42:53;;;;;;;;;;;13.40;99.90;;;;;;5009020;28;19930;-89
2022/04/30 09:45:29;;;;;;;;;;;13.50;99.90;;;;;;5002044;28;20016;-90
2022/04/30 09:47:55;;;;;;;;;;;13.60;99.90;;;;;;4999883;28;19976;-85
2022/04/30 09:55:52;;;;;;;;;;;13.70;99.90;;;;;;4988347;28;19928;-86
2022/04/30 09:58:24;;;;;;;;;;;13.60;99.90;;;;;;5001852;28;19921;-89
2022/04/30 10:00:54;;;;;;;;;;;13.60;99.90;;;;;;5000222;28;19956;-87
2022/04/30 10:03:21;;;;;;;;;;;13.60;99.90;;;;;;5005778;28;20045;-89
2022/04/30 10:05:47;;;;;;;;;;;13.60;99.90;;;;;;4990476;28;19921;-86
2022/04/30 10:08:12;;;;;;;;;;;13.60;99.90;;;;;;5002982;28;19928;-86
2022/04/30 10:10:42;;;;;;;;;;;13.60;99.90;;;;;;5009108;28;19945;-87
2022/04/30 10:13:36;;;;;;;;;;;13.70;99.90;;;;;;5010313;28;19922;-87
2022/04/30 10:16:04;;;;;;;;;;;13.70;99.90;;;;;;4997254;28;19929;-88
2022/04/30 10:18:33;;;;;;;;;;;13.80;99.90;;;;;;4993461;28;20003;-88
2022/04/30 10:21:00;;;;;;;;;;;13.80;99.90;;;;;;5006972;28;19921;-88
2022/04/30 10:23:26;;;;;;;;;;;13.80;99.90;;;;;;4974924;28;19926;-83
2022/04/30 10:25:53;;;;;;;;;;;13.70;99.90;;;;;;4991817;28;19933;-87
2022/04/30 10:28:22;;;;;;;;;;;13.70;99.90;;;;;;5005496;28;19922;-87
2022/04/30 10:31:02;;;;;;;;;;;13.60;99.90;;;;;;5010024;28;19928;-86
2022/04/30 10:33:28;;;;;;;;;;;13.60;99.90;;;;;;4993238;28;19926;-83
2022/04/30 10:36:07;;;;;;;;;;;13.60;99.90;;;;;;4997666;28;19980;-87
2022/04/30 10:38:33;;;;;;;;;;;13.80;99.90;;;;;;5014179;28;20347;-90
2022/04/30 10:40:59;;;;;;;;;;;13.90;99.80;;;;;;4979589;28;19921;-89
2022/04/30 10:43:35;;;;;;;;;;;13.90;99.90;;;;;;4978198;28;19922;-87
2022/04/30 10:46:06;;;;;;;;;;;14.10;99.90;;;;;;4997324;28;19922;-89
2022/04/30 10:48:35;;;;;;;;;;;14.10;99.90;;;;;;4995944;28;20036;-87
2022/04/30 10:51:08;;;;;;;;;;;14.10;95.40;;;;;;4996374;28;20397;-88
2022/04/30 10:53:34;;;;;;;;;;;14.00;97.70;;;;;;5012730;28;19926;-83
2022/04/30 10:56:01;;;;;;;;;;;14.10;98.10;;;;;;4995621;28;19988;-87
2022/04/30 10:58:34;;;;;;;;;;;14.30;97.30;;;;;;5006709;28;19929;-89
2022/04/30 11:01:10;;;;;;;;;;;14.40;99.40;;;;;;4985345;28;19937;-80
2022/04/30 11:03:36;;;;;;;;;;;14.50;96.80;;;;;;5012189;28;19964;-76
2022/04/30 11:06:02;;;;;;;;;;;14.60;94.00;;;;;;5012204;28;19996;-77
2022/04/30 11:08:27;;;;;;;;;;;14.80;96.20;;;;;;5013145;28;19929;-77
2022/04/30 11:10:54;;;;;;;;;;;14.90;98.10;;;;;;4998446;28;19933;-77
2022/04/30 11:13:19;;;;;;;;;;;14.90;96.20;;;;;;4976858;28;19933;-77
2022/04/30 11:15:46;;;;;;;;;;;14.80;97.20;;;;;;4999830;28;19921;-77
2022/04/30 11:18:11;;;;;;;;;;;14.70;94.70;;;;;;4988910;28;20355;-77
2022/04/30 11:20:37;;;;;;;;;;;14.60;91.90;;;;;;4992688;28;19929;-77
2022/04/30 11:23:02;;;;;;;;;;;14.50;89.70;;;;;;4993625;28;19932;-78
2022/04/30 11:25:32;;;;;;;;;;;14.50;93.40;;;;;;4992969;28;20777;-78
2022/04/30 11:27:58;;;;;;;;;;;14.60;94.80;;;;;;4992700;28;20012;-78
2022/04/30 11:30:24;;;;;;;;;;;14.70;93.60;;;;;;4993534;28;19925;-78
2022/04/30 11:32:50;;;;;;;;;;;14.70;92.90;;;;;;4985495;28;19929;-78
2022/04/30 11:35:19;;;;;;;;;;;14.80;90.50;;;;;;4985080;28;19925;-78
2022/04/30 11:37:44;;;;;;;;;;;14.90;93.40;;;;;;5009301;28;19925;-90
2022/04/30 11:40:10;;;;;;;;;;;15.30;94.00;;;;;;5010178;28;20005;-78
2022/04/30 11:42:36;;;;;;;;;;;15.40;92.70;;;;;;5011709;28;20230;-78
2022/04/30 11:45:02;;;;;;;;;;;15.40;93.40;;;;;;5012286;28;20413;-82
2022/04/30 11:47:28;;;;;;;;;;;15.30;92.20;;;;;;5012287;28;19925;-78
2022/04/30 11:50:07;;;;;;;;;;;15.20;92.00;;;;;;5011688;28;19936;-76
2022/04/30 11:52:33;;;;;;;;;;;15.00;91.90;;;;;;5006693;28;20363;-78
2022/04/30 11:55:03;;;;;;;;;;;14.90;90.10;;;;;;4975899;28;19976;-76
2022/04/30 11:57:29;;;;;;;;;;;14.90;91.00;;;;;;4991905;28;20355;-77
2022/04/30 11:59:55;;;;;;;;;;;14.80;90.10;;;;;;4991464;28;19925;-76
2022/04/30 12:02:21;;;;;;;;;;;14.70;92.50;;;;;;5001105;28;19987;-77
2022/04/30 12:04:48;;;;;;;;;;;14.60;92.10;;;;;;5011525;28;19972;-76
2022/04/30 12:07:14;;;;;;;;;;;14.30;83.00;;;;;;5012243;28;19925;-76
2022/04/30 12:09:47;;;;;;;;;;;14.10;86.90;;;;;;5011910;28;19929;-76
2022/04/30 12:12:16;;;;;;;;;;;14.00;89.20;;;;;;5010309;28;20008;-76
2022/04/30 12:14:42;;;;;;;;;;;13.80;90.20;;;;;;4992702;28;19925;-76
2022/04/30 12:17:08;;;;;;;;;;;13.60;91.00;;;;;;4976584;28;19928;-78
2022/04/30 12:25:05;;;;;;;;;;;13.10;90.60;;;;;;5012088;28;19943;-76
2022/04/30 12:27:31;;;;;;;;;;;12.90;91.20;;;;;;5011410;28;19925;-77
2022/04/30 12:30:00;;;;;;;;;;;12.60;91.20;;;;;;5011105;28;20366;-76
2022/04/30 12:32:26;;;;;;;;;;;12.50;92.00;;;;;;5012133;28;19931;-76
2022/04/30 12:34:53;;;;;;;;;;;12.40;92.00;;;;;;4994505;28;19925;-76
2022/04/30 12:37:27;;;;;;;;;;;12.40;92.80;;;;;;5009530;28;19931;-76
2022/04/30 12:39:53;;;;;;;;;;;12.30;93.30;;;;;;5010809;28;19925;-76
2022/04/30 12:42:19;;;;;;;;;;;12.20;93.70;;;;;;5010853;28;19925;-76
2022/04/30 12:44:45;;;;;;;;;;;12.20;93.50;;;;;;4994681;28;19932;-76
2022/04/30 12:47:10;;;;;;;;;;;12.10;93.90;;;;;;5011967;28;19925;-76
2022/04/30 12:49:36;;;;;;;;;;;12.10;94.00;;;;;;5011868;28;20016;-76
2022/04/30 12:52:01;;;;;;;;;;;12.10;94.00;;;;;;4994989;28;19929;-76
2022/04/30 12:54:27;;;;;;;;;;;12.00;94.00;;;;;;4975522;28;19928;-76
2022/04/30 12:56:55;;;;;;;;;;;12.00;94.70;;;;;;4974230;28;19945;-76
2022/04/30 12:59:20;;;;;;;;;;;12.00;94.00;;;;;;4998807;28;19929;-76
2022/04/30 13:01:46;;;;;;;;;;;12.00;94.70;;;;;;4994529;28;20013;-76
2022/04/30 13:04:12;;;;;;;;;;;12.00;94.00;;;;;;4991709;28;19921;-76
2022/04/30 13:06:38;;;;;;;;;;;12.00;93.80;;;;;;4991096;28;19922;-76
2022/04/30 13:14:32;;;;;;;;;;;12.10;94.10;;;;;;4991107;28;19980;-76
2022/04/30 13:16:59;;;;;;;;;;;12.00;94.00;;;;;;4998946;28;19937;-77
2022/04/30 13:19:26;;;;;;;;;;;12.00;94.20;;;;;;4984666;28;19925;-77
2022/04/30 13:21:52;;;;;;;;;;;12.00;94.20;;;;;;4963270;28;19935;-76
2022/04/30 13:24:18;;;;;;;;;;;12.00;93.40;;;;;;4994766;28;19925;-77
2022/04/30 13:26:44;;;;;;;;;;;12.00;93.80;;;;;;5010056;28;20338;-76
2022/04/30 13:29:11;;;;;;;;;;;12.00;94.00;;;;;;4994188;28;20126;-76
2022/04/30 13:31:37;;;;;;;;;;;11.90;94.10;;;;;;4994515;28;19977;-76
2022/04/30 13:34:03;;;;;;;;;;;11.90;93.60;;;;;;5010344;28;19921;-76
2022/04/30 13:36:31;;;;;;;;;;;11.90;94.10;;;;;;4994113;28;19975;-77
2022/04/30 13:38:56;;;;;;;;;;;11.90;94.00;;;;;;4991668;28;19922;-76
2022/04/30 13:41:22;;;;;;;;;;;11.90;93.70;;;;;;4991702;28;19922;-76
2022/04/30 13:43:48;;;;;;;;;;;11.90;94.00;;;;;;4973523;28;19926;-76
2022/04/30 13:46:13;;;;;;;;;;;11.90;94.30;;;;;;4988103;28;19972;-77
2022/04/30 13:48:40;;;;;;;;;;;11.90;94.40;;;;;;5010762;28;19929;-76
2022/04/30 13:51:05;;;;;;;;;;;11.90;94.30;;;;;;5009617;28;19921;-76
2022/04/30 13:53:31;;;;;;;;;;;11.90;94.40;;;;;;5010553;28;19925;-77
2022/04/30 13:55:58;;;;;;;;;;;12.00;94.80;;;;;;5009399;28;19972;-76
2022/04/30 13:58:23;;;;;;;;;;;12.00;94.60;;;;;;5011121;28;19972;-76
2022/04/30 14:00:49;;;;;;;;;;;12.00;94.50;;;;;;5008172;28;20011;-76
2022/04/30 14:03:16;;;;;;;;;;;12.00;94.30;;;;;;5010572;28;19925;-76
2022/04/30 14:05:41;;;;;;;;;;;12.00;94.80;;;;;;5009878;28;19925;-77
2022/04/30 14:08:08;;;;;;;;;;;12.00;94.90;;;;;;4992791;28;20005;-76
2022/04/30 14:10:34;;;;;;;;;;;12.00;94.60;;;;;;4973528;28;19926;-77
2022/04/30 14:15:44;;;;;;;;;;;11.90;94.50;;;;;;5002773;28;19925;-76
2022/04/30 14:18:15;;;;;;;;;;;11.90;94.90;;;;;;5009543;28;19929;-76
2022/04/30 14:20:41;;;;;;;;;;;11.90;94.30;;;;;;5009844;28;19966;-76
2022/04/30 14:23:07;;;;;;;;;;;12.00;94.90;;;;;;5009149;28;19925;-79
2022/04/30 14:25:34;;;;;;;;;;;12.00;94.40;;;;;;4993202;28;19928;-79
2022/04/30 14:28:00;;;;;;;;;;;12.00;95.00;;;;;;4992957;28;20535;-79
2022/04/30 14:30:27;;;;;;;;;;;12.10;95.00;;;;;;5006807;28;20009;-79
2022/04/30 14:32:52;;;;;;;;;;;12.10;95.10;;;;;;5003099;28;20098;-78
2022/04/30 14:35:18;;;;;;;;;;;12.10;94.50;;;;;;4989965;28;20024;-79
2022/04/30 14:37:44;;;;;;;;;;;12.10;94.80;;;;;;4990645;28;19932;-79
2022/04/30 14:40:10;;;;;;;;;;;12.20;94.90;;;;;;4972793;28;19930;-78
2022/04/30 14:42:37;;;;;;;;;;;12.20;94.50;;;;;;5008443;28;19925;-79
2022/04/30 14:45:03;;;;;;;;;;;12.20;94.40;;;;;;5009226;28;20012;-78
2022/04/30 14:47:28;;;;;;;;;;;12.10;93.50;;;;;;4990758;28;19997;-79
2022/04/30 14:49:55;;;;;;;;;;;12.20;94.20;;;;;;4989519;28;20424;-78
2022/04/30 14:52:22;;;;;;;;;;;12.20;94.20;;;;;;4985248;28;19921;-79
2022/04/30 14:54:48;;;;;;;;;;;12.20;94.10;;;;;;4992817;28;19937;-79
2022/04/30 14:57:14;;;;;;;;;;;12.30;94.00;;;;;;5008548;28;19925;-79
2022/04/30 14:59:40;;;;;;;;;;;12.30;93.70;;;;;;5009578;28;20016;-82
2022/04/30 15:02:05;;;;;;;;;;;12.40;93.30;;;;;;5009385;28;19928;-79
2022/04/30 15:04:32;;;;;;;;;;;12.40;93.90;;;;;;5009874;28;19963;-78
2022/04/30 15:06:59;;;;;;;;;;;12.40;93.70;;;;;;4993425;28;19922;-78
2022/04/30 15:09:24;;;;;;;;;;;12.40;93.20;;;;;;4996089;28;20386;-78
2022/04/30 15:11:50;;;;;;;;;;;12.50;93.70;;;;;;5008621;28;20004;-78